Time;durP1;ratioP1;P1;durP2;ratioP2;P2;SDS_P1;SDS_P2;PMS_P1;PMS_P2;Temp;Humidity;BMP_temperature;BMP_pressure;BME280_temperature;BME280_humidity;BME280_pressure;Samples;Min_cycle;Max_cycle;Signal;HPM_P1;HPM_P2
2022/07/20 00:00:47;;;;;;;6.75;4.50;;;;;;;;;;5103845;28;20095;-64
2022/07/20 00:03:13;;;;;;;8.48;4.40;;;;;;;;;;5110048;28;20096;-64
2022/07/20 00:05:39;;;;;;;7.15;4.50;;;;;;;;;;5107912;28;20135;-64
2022/07/20 00:08:05;;;;;;;8.82;4.47;;;;;;;;;;5110998;28;20181;-64
2022/07/20 00:13:15;;;;;;;8.25;4.43;;;;;;;;;;5098646;28;20097;-64
2022/07/20 00:15:41;;;;;;;7.25;4.20;;;;;;;;;;5089952;28;20387;-63
2022/07/20 00:18:07;;;;;;;7.25;4.50;;;;;;;;;;5090625;28;20036;-64
2022/07/20 00:20:33;;;;;;;6.68;4.40;;;;;;;;;;5092967;28;20036;-63
2022/07/20 00:22:58;;;;;;;6.32;4.57;;;;;;;;;;5090546;28;20457;-64
2022/07/20 00:25:25;;;;;;;8.48;4.57;;;;;;;;;;5095682;28;20039;-65
2022/07/20 00:27:50;;;;;;;6.10;4.78;;;;;;;;;;5107674;28;20122;-64
2022/07/20 00:30:16;;;;;;;9.27;4.00;;;;;;;;;;5103906;28;20491;-64
2022/07/20 00:32:42;;;;;;;7.15;4.40;;;;;;;;;;5099043;28;20475;-64
2022/07/20 00:35:10;;;;;;;7.03;4.47;;;;;;;;;;5089155;28;20036;-64
2022/07/20 00:37:35;;;;;;;10.07;4.50;;;;;;;;;;5091899;28;20119;-64
2022/07/20 00:40:02;;;;;;;8.60;4.60;;;;;;;;;;5089955;28;20483;-65
2022/07/20 00:42:28;;;;;;;10.52;4.20;;;;;;;;;;5107470;28;20027;-64
2022/07/20 00:44:53;;;;;;;6.38;4.43;;;;;;;;;;5108895;28;20467;-64
2022/07/20 00:47:18;;;;;;;6.93;4.47;;;;;;;;;;5093623;28;20032;-64
2022/07/20 00:49:44;;;;;;;8.20;4.45;;;;;;;;;;5073947;28;20395;-64
2022/07/20 00:52:09;;;;;;;7.68;4.30;;;;;;;;;;5089931;28;20089;-64
2022/07/20 00:54:35;;;;;;;6.80;4.28;;;;;;;;;;5080828;28;20067;-63
2022/07/20 00:57:01;;;;;;;8.50;4.50;;;;;;;;;;5106184;28;20036;-65
2022/07/20 00:59:27;;;;;;;6.18;4.43;;;;;;;;;;5093631;28;20035;-65
2022/07/20 01:01:53;;;;;;;7.25;4.28;;;;;;;;;;5094858;28;20162;-65
2022/07/20 01:04:18;;;;;;;6.22;4.32;;;;;;;;;;5112141;28;20088;-64
2022/07/20 01:06:44;;;;;;;6.45;4.20;;;;;;;;;;5112860;28;20028;-64
2022/07/20 01:09:09;;;;;;;6.47;4.28;;;;;;;;;;5108355;28;20047;-64
2022/07/20 01:11:35;;;;;;;7.68;4.50;;;;;;;;;;5103056;28;20039;-64
2022/07/20 01:14:06;;;;;;;6.90;4.35;;;;;;;;;;5093332;28;20111;-64
2022/07/20 01:16:32;;;;;;;8.80;4.10;;;;;;;;;;5100515;28;20118;-64
2022/07/20 01:18:58;;;;;;;6.03;4.35;;;;;;;;;;5095049;28;20036;-64
2022/07/20 01:21:24;;;;;;;6.88;4.07;;;;;;;;;;5093646;28;20043;-63
2022/07/20 01:23:49;;;;;;;6.78;4.40;;;;;;;;;;5108426;28;20035;-64
2022/07/20 01:26:19;;;;;;;8.65;4.40;;;;;;;;;;5112203;28;20027;-64
2022/07/20 01:28:45;;;;;;;6.15;4.05;;;;;;;;;;5105952;28;20039;-64
2022/07/20 01:31:11;;;;;;;10.25;4.10;;;;;;;;;;5106932;28;20046;-64
2022/07/20 01:33:37;;;;;;;7.25;4.07;;;;;;;;;;5095300;28;20028;-63
2022/07/20 01:36:02;;;;;;;9.70;4.45;;;;;;;;;;5106304;28;20043;-64
2022/07/20 01:38:28;;;;;;;5.22;3.97;;;;;;;;;;5093305;28;20052;-63
2022/07/20 01:40:53;;;;;;;9.50;4.32;;;;;;;;;;5098862;28;20060;-65
2022/07/20 01:43:19;;;;;;;7.00;3.92;;;;;;;;;;5089048;28;20038;-63
2022/07/20 01:45:44;;;;;;;7.93;4.20;;;;;;;;;;5100471;28;20038;-64
2022/07/20 01:48:10;;;;;;;7.13;3.90;;;;;;;;;;5095419;28;20028;-64
2022/07/20 01:50:37;;;;;;;7.05;4.03;;;;;;;;;;5093789;28;20028;-63
2022/07/20 01:53:02;;;;;;;8.10;4.18;;;;;;;;;;5093981;28;20097;-65
2022/07/20 01:55:28;;;;;;;6.35;4.20;;;;;;;;;;5101189;27;20417;-63
2022/07/20 01:57:53;;;;;;;7.63;4.15;;;;;;;;;;5113335;28;20020;-65
2022/07/20 02:00:19;;;;;;;7.15;4.28;;;;;;;;;;5120096;27;20027;-65
2022/07/20 02:02:45;;;;;;;7.68;4.40;;;;;;;;;;5098519;28;20028;-64
2022/07/20 02:05:10;;;;;;;9.32;4.30;;;;;;;;;;5108932;28;20118;-64
2022/07/20 02:07:39;;;;;;;6.47;4.43;;;;;;;;;;5092998;28;20078;-64
2022/07/20 02:10:06;;;;;;;8.45;4.78;;;;;;;;;;5106396;28;20031;-65
2022/07/20 02:12:32;;;;;;;8.85;4.55;;;;;;;;;;5093498;28;20044;-65
2022/07/20 02:14:57;;;;;;;11.00;4.57;;;;;;;;;;5092898;28;20075;-64
2022/07/20 02:17:23;;;;;;;8.27;4.60;;;;;;;;;;5111624;28;20069;-63
2022/07/20 02:19:48;;;;;;;11.05;4.70;;;;;;;;;;5094770;28;20038;-68
2022/07/20 02:22:14;;;;;;;8.55;4.43;;;;;;;;;;5074981;28;20048;-64
2022/07/20 02:24:39;;;;;;;7.55;4.40;;;;;;;;;;5104669;28;20046;-65
2022/07/20 02:27:05;;;;;;;7.80;4.70;;;;;;;;;;5101440;28;20036;-64
2022/07/20 02:29:30;;;;;;;8.10;4.63;;;;;;;;;;5107400;28;20384;-63
2022/07/20 02:31:56;;;;;;;8.18;4.53;;;;;;;;;;5092232;28;20055;-63
2022/07/20 02:34:21;;;;;;;7.90;4.60;;;;;;;;;;5091991;28;20024;-63
2022/07/20 02:36:46;;;;;;;10.82;4.60;;;;;;;;;;5092956;28;20032;-64
2022/07/20 02:39:12;;;;;;;7.65;4.40;;;;;;;;;;5093726;28;20028;-63
2022/07/20 02:41:37;;;;;;;11.43;4.60;;;;;;;;;;5113524;28;20038;-63
2022/07/20 02:44:03;;;;;;;7.13;4.47;;;;;;;;;;5111919;28;20551;-64
2022/07/20 02:46:28;;;;;;;8.20;4.30;;;;;;;;;;5094940;28;20038;-63
2022/07/20 02:48:54;;;;;;;9.73;4.40;;;;;;;;;;5096675;28;20024;-64
2022/07/20 02:51:19;;;;;;;8.27;4.30;;;;;;;;;;5090824;28;20095;-64
2022/07/20 02:53:44;;;;;;;8.50;4.50;;;;;;;;;;5092665;28;20105;-64
2022/07/20 02:56:10;;;;;;;6.60;4.50;;;;;;;;;;5093276;28;20077;-64
2022/07/20 02:58:35;;;;;;;6.45;4.15;;;;;;;;;;5095218;28;20460;-64
2022/07/20 03:01:01;;;;;;;8.18;4.18;;;;;;;;;;5112048;28;20125;-64
2022/07/20 03:03:26;;;;;;;7.88;4.20;;;;;;;;;;5094141;28;20059;-64
2022/07/20 03:05:51;;;;;;;8.18;4.50;;;;;;;;;;5102695;28;20074;-64
2022/07/20 03:08:17;;;;;;;7.80;4.15;;;;;;;;;;5111224;28;20068;-64
2022/07/20 03:10:43;;;;;;;10.88;4.45;;;;;;;;;;5102650;28;20475;-63
2022/07/20 03:13:08;;;;;;;11.93;4.93;;;;;;;;;;5090562;28;20088;-64
2022/07/20 03:15:33;;;;;;;8.43;4.70;;;;;;;;;;5092199;28;20391;-64
2022/07/20 03:17:59;;;;;;;15.27;4.50;;;;;;;;;;5093952;28;20031;-65
2022/07/20 03:20:27;;;;;;;10.15;4.85;;;;;;;;;;5091522;28;20122;-65
2022/07/20 03:22:53;;;;;;;7.72;4.28;;;;;;;;;;5094494;28;20099;-67
2022/07/20 03:25:19;;;;;;;7.63;4.22;;;;;;;;;;5092928;28;20111;-65
2022/07/20 03:27:45;;;;;;;11.38;4.32;;;;;;;;;;5098775;28;20106;-65
2022/07/20 03:30:11;;;;;;;15.93;4.40;;;;;;;;;;5111541;28;20390;-65
2022/07/20 03:32:36;;;;;;;9.55;4.28;;;;;;;;;;5108041;28;20032;-66
2022/07/20 03:35:03;;;;;;;7.72;4.10;;;;;;;;;;5112275;28;20036;-65
2022/07/20 03:37:28;;;;;;;7.20;4.20;;;;;;;;;;5111022;28;20036;-61
2022/07/20 03:39:53;;;;;;;9.95;4.30;;;;;;;;;;5109614;28;20049;-63
2022/07/20 03:42:19;;;;;;;11.75;4.25;;;;;;;;;;5106192;28;20024;-62
2022/07/20 03:44:44;;;;;;;6.65;4.25;;;;;;;;;;5092304;28;20031;-62
2022/07/20 03:47:10;;;;;;;10.82;4.22;;;;;;;;;;5073214;28;20040;-62
2022/07/20 03:49:35;;;;;;;8.57;4.60;;;;;;;;;;5092271;28;20479;-62
2022/07/20 03:52:01;;;;;;;12.38;4.45;;;;;;;;;;5091779;28;20460;-61
2022/07/20 03:54:26;;;;;;;9.13;4.18;;;;;;;;;;5090128;28;20020;-62
2022/07/20 03:56:52;;;;;;;6.72;4.38;;;;;;;;;;5092089;28;20096;-62
2022/07/20 03:59:17;;;;;;;8.07;4.15;;;;;;;;;;5091333;28;20115;-62
2022/07/20 04:01:43;;;;;;;8.07;4.40;;;;;;;;;;5091209;28;20098;-62
2022/07/20 04:04:08;;;;;;;9.75;4.20;;;;;;;;;;5106861;28;20531;-62
2022/07/20 04:06:34;;;;;;;6.90;3.97;;;;;;;;;;5112666;28;20035;-62
2022/07/20 04:09:01;;;;;;;10.00;4.57;;;;;;;;;;5112502;28;20456;-62
2022/07/20 04:11:26;;;;;;;9.30;4.22;;;;;;;;;;5112152;28;20460;-62
2022/07/20 04:13:52;;;;;;;9.55;4.30;;;;;;;;;;5112313;28;20036;-61
2022/07/20 04:16:18;;;;;;;8.20;4.38;;;;;;;;;;5111493;28;20032;-61
2022/07/20 04:18:43;;;;;;;9.25;4.25;;;;;;;;;;5096409;28;20434;-61
2022/07/20 04:21:09;;;;;;;9.60;4.30;;;;;;;;;;5091472;28;20461;-62
2022/07/20 04:23:34;;;;;;;8.52;4.78;;;;;;;;;;5091915;28;20033;-61
2022/07/20 04:25:59;;;;;;;6.55;4.20;;;;;;;;;;5092223;28;20024;-61
2022/07/20 04:28:25;;;;;;;9.63;4.25;;;;;;;;;;5073638;28;20028;-62
2022/07/20 04:30:50;;;;;;;9.57;4.53;;;;;;;;;;5096212;28;20461;-61
2022/07/20 04:33:18;;;;;;;8.70;4.80;;;;;;;;;;5109864;28;20364;-62
2022/07/20 04:35:44;;;;;;;7.40;4.57;;;;;;;;;;5116355;28;20356;-62
2022/07/20 04:38:09;;;;;;;6.25;4.18;;;;;;;;;;5115698;28;20100;-62
2022/07/20 04:40:34;;;;;;;8.30;4.40;;;;;;;;;;5116287;28;20028;-62
2022/07/20 04:43:00;;;;;;;7.93;4.38;;;;;;;;;;5116625;28;20066;-61
2022/07/20 04:45:25;;;;;;;8.85;4.80;;;;;;;;;;5115951;28;20028;-62
2022/07/20 04:47:50;;;;;;;8.02;4.22;;;;;;;;;;5100448;28;20430;-62
2022/07/20 04:50:16;;;;;;;6.90;4.30;;;;;;;;;;5095303;28;20074;-62
2022/07/20 04:52:41;;;;;;;9.02;4.57;;;;;;;;;;5095950;28;20028;-62
2022/07/20 04:55:07;;;;;;;8.98;4.85;;;;;;;;;;5095149;28;20048;-62
2022/07/20 04:57:33;;;;;;;11.40;4.55;;;;;;;;;;5095803;28;20028;-61
2022/07/20 04:59:58;;;;;;;8.57;4.47;;;;;;;;;;5095632;28;20020;-62
2022/07/20 05:02:24;;;;;;;6.53;4.55;;;;;;;;;;5101856;28;20431;-62
2022/07/20 05:04:49;;;;;;;9.85;4.70;;;;;;;;;;5116243;28;20055;-61
2022/07/20 05:07:15;;;;;;;9.95;5.03;;;;;;;;;;5115131;28;20104;-62
2022/07/20 05:09:41;;;;;;;7.97;4.75;;;;;;;;;;5115629;28;20040;-61
2022/07/20 05:12:07;;;;;;;7.32;4.60;;;;;;;;;;5115718;28;20027;-62
2022/07/20 05:14:33;;;;;;;6.10;4.53;;;;;;;;;;5115873;28;20038;-62
2022/07/20 05:16:59;;;;;;;8.45;4.60;;;;;;;;;;5109701;28;20031;-61
2022/07/20 05:19:24;;;;;;;7.70;4.30;;;;;;;;;;5094537;28;20376;-62
2022/07/20 05:21:49;;;;;;;10.07;4.95;;;;;;;;;;5095369;28;20105;-61
2022/07/20 05:24:15;;;;;;;9.70;4.80;;;;;;;;;;5094790;28;20059;-62
2022/07/20 05:26:40;;;;;;;8.13;4.78;;;;;;;;;;5095288;28;20042;-61
2022/07/20 05:29:05;;;;;;;7.28;4.63;;;;;;;;;;5095029;28;20039;-61
2022/07/20 05:31:31;;;;;;;6.25;4.55;;;;;;;;;;5096615;28;20450;-61
2022/07/20 05:33:56;;;;;;;7.97;4.65;;;;;;;;;;5115655;28;20515;-61
2022/07/20 05:36:23;;;;;;;13.23;4.70;;;;;;;;;;5114812;28;20031;-62
2022/07/20 05:38:49;;;;;;;9.48;4.93;;;;;;;;;;5115397;28;20027;-62
2022/07/20 05:41:14;;;;;;;9.05;4.70;;;;;;;;;;5113939;28;20111;-62
2022/07/20 05:43:40;;;;;;;7.78;4.55;;;;;;;;;;5115070;28;20111;-61
2022/07/20 05:46:05;;;;;;;8.27;4.65;;;;;;;;;;5113144;28;20081;-62
2022/07/20 05:48:31;;;;;;;11.20;4.65;;;;;;;;;;5114436;28;20444;-62
2022/07/20 05:50:57;;;;;;;8.48;4.80;;;;;;;;;;5115337;28;20480;-61
2022/07/20 05:53:22;;;;;;;8.80;4.78;;;;;;;;;;5114441;28;20066;-62
2022/07/20 05:55:48;;;;;;;10.98;4.80;;;;;;;;;;5114901;28;20123;-65
2022/07/20 05:58:14;;;;;;;10.10;4.70;;;;;;;;;;5094390;28;20044;-65
2022/07/20 06:00:39;;;;;;;11.88;5.28;;;;;;;;;;5115039;28;20031;-62
2022/07/20 06:03:05;;;;;;;9.98;4.90;;;;;;;;;;5096178;28;20126;-70
2022/07/20 06:05:31;;;;;;;14.50;4.90;;;;;;;;;;5113917;28;20466;-67
2022/07/20 06:08:01;;;;;;;12.02;5.13;;;;;;;;;;5114701;28;20024;-69
2022/07/20 06:10:28;;;;;;;12.95;4.68;;;;;;;;;;5114213;28;20089;-68
2022/07/20 06:12:56;;;;;;;12.57;4.90;;;;;;;;;;5111560;28;20039;-68
2022/07/20 06:15:24;;;;;;;12.32;4.63;;;;;;;;;;5113822;28;20387;-68
2022/07/20 06:17:50;;;;;;;12.77;4.80;;;;;;;;;;5096161;28;20076;-68
2022/07/20 06:20:15;;;;;;;9.57;5.00;;;;;;;;;;5113818;28;20028;-67
2022/07/20 06:22:42;;;;;;;12.05;5.28;;;;;;;;;;5114457;28;20065;-66
2022/07/20 06:25:09;;;;;;;13.30;5.45;;;;;;;;;;5114467;28;20035;-67
2022/07/20 06:27:36;;;;;;;13.80;5.43;;;;;;;;;;5101403;28;20034;-67
2022/07/20 06:30:02;;;;;;;12.63;5.90;;;;;;;;;;5093883;28;20040;-70
2022/07/20 06:32:27;;;;;;;11.93;5.97;;;;;;;;;;5093195;28;20039;-69
2022/07/20 06:34:53;;;;;;;14.43;5.97;;;;;;;;;;5093511;28;20020;-70
2022/07/20 06:37:19;;;;;;;11.60;6.28;;;;;;;;;;5102237;28;20114;-69
2022/07/20 06:39:44;;;;;;;14.98;7.38;;;;;;;;;;5114219;28;20039;-70
2022/07/20 06:42:10;;;;;;;19.73;7.40;;;;;;;;;;5114270;28;20035;-70
2022/07/20 06:44:35;;;;;;;17.02;7.80;;;;;;;;;;5113557;28;20074;-70
2022/07/20 06:47:01;;;;;;;14.18;8.35;;;;;;;;;;5099086;28;20035;-70
2022/07/20 06:49:27;;;;;;;15.68;8.40;;;;;;;;;;5092882;28;20115;-68
2022/07/20 06:51:54;;;;;;;19.52;8.70;;;;;;;;;;5093289;28;20434;-68
2022/07/20 06:54:19;;;;;;;15.77;8.63;;;;;;;;;;5092880;28;20043;-68
2022/07/20 06:56:44;;;;;;;18.33;8.93;;;;;;;;;;5093653;28;20044;-63
2022/07/20 06:59:10;;;;;;;18.95;9.77;;;;;;;;;;5093394;28;20161;-66
2022/07/20 07:01:35;;;;;;;21.48;10.52;;;;;;;;;;5074131;28;20080;-63
2022/07/20 07:04:01;;;;;;;21.17;10.38;;;;;;;;;;5075147;28;20035;-63
2022/07/20 07:06:28;;;;;;;18.60;11.02;;;;;;;;;;5092770;28;20121;-63
2022/07/20 07:08:55;;;;;;;19.15;11.35;;;;;;;;;;5093328;28;20530;-62
2022/07/20 07:11:20;;;;;;;23.70;11.57;;;;;;;;;;5092352;28;20357;-62
2022/07/20 07:13:45;;;;;;;24.83;12.68;;;;;;;;;;5074814;28;20027;-61
2022/07/20 07:16:11;;;;;;;21.60;13.60;;;;;;;;;;5106625;28;20043;-62
2022/07/20 07:18:37;;;;;;;21.77;13.82;;;;;;;;;;5112996;28;20452;-62
2022/07/20 07:21:03;;;;;;;25.25;13.73;;;;;;;;;;5113425;28;20042;-62
2022/07/20 07:23:28;;;;;;;26.55;14.00;;;;;;;;;;5112551;28;20102;-62
2022/07/20 07:25:54;;;;;;;28.23;14.38;;;;;;;;;;5113469;28;20028;-62
2022/07/20 07:28:19;;;;;;;23.10;15.30;;;;;;;;;;5112362;28;20042;-62
2022/07/20 07:30:45;;;;;;;27.75;15.57;;;;;;;;;;5098755;28;20039;-61
2022/07/20 07:33:10;;;;;;;29.00;15.40;;;;;;;;;;5092974;28;20031;-62
2022/07/20 07:35:35;;;;;;;27.73;16.02;;;;;;;;;;5092072;28;20081;-61
2022/07/20 07:38:01;;;;;;;29.38;15.40;;;;;;;;;;5092859;28;20380;-61
2022/07/20 07:40:26;;;;;;;28.90;15.90;;;;;;;;;;5092151;28;20114;-60
2022/07/20 07:42:52;;;;;;;25.73;16.05;;;;;;;;;;5092438;28;20031;-61
2022/07/20 07:45:17;;;;;;;27.48;16.35;;;;;;;;;;5103883;28;20032;-60
2022/07/20 07:47:45;;;;;;;32.40;16.27;;;;;;;;;;5112750;28;20040;-62
2022/07/20 07:50:11;;;;;;;24.13;15.95;;;;;;;;;;5112959;28;20020;-63
2022/07/20 07:52:36;;;;;;;28.00;16.63;;;;;;;;;;5112644;28;20387;-62
2022/07/20 07:55:02;;;;;;;24.50;16.40;;;;;;;;;;5094477;28;20043;-62
2022/07/20 07:57:27;;;;;;;31.85;16.52;;;;;;;;;;5112347;28;20031;-62
2022/07/20 07:59:53;;;;;;;25.33;16.27;;;;;;;;;;5098858;28;20032;-62
2022/07/20 08:02:18;;;;;;;27.75;16.83;;;;;;;;;;5091922;28;20494;-62
2022/07/20 08:04:43;;;;;;;25.15;15.88;;;;;;;;;;5091558;28;20091;-62
2022/07/20 08:07:09;;;;;;;26.67;16.75;;;;;;;;;;5092494;28;20036;-63
2022/07/20 08:09:34;;;;;;;23.88;17.50;;;;;;;;;;5091389;28;20468;-63
2022/07/20 08:11:59;;;;;;;25.10;17.30;;;;;;;;;;5092483;28;20038;-62
2022/07/20 08:14:25;;;;;;;26.35;17.25;;;;;;;;;;5103145;28;20027;-63
2022/07/20 08:16:50;;;;;;;27.08;17.00;;;;;;;;;;5112646;28;20122;-62
2022/07/20 08:19:16;;;;;;;31.30;17.27;;;;;;;;;;5112367;28;20032;-63
2022/07/20 08:21:41;;;;;;;24.55;17.67;;;;;;;;;;5112134;28;20028;-62
2022/07/20 08:24:07;;;;;;;28.83;17.50;;;;;;;;;;5112657;28;20028;-62
2022/07/20 08:26:32;;;;;;;28.77;18.10;;;;;;;;;;5111740;28;20035;-62
2022/07/20 08:28:58;;;;;;;26.80;17.20;;;;;;;;;;5099587;28;20502;-62
2022/07/20 08:31:23;;;;;;;27.30;18.13;;;;;;;;;;5091438;28;20028;-62
2022/07/20 08:33:49;;;;;;;25.23;18.83;;;;;;;;;;5074280;28;20380;-63
2022/07/20 08:36:15;;;;;;;26.38;18.75;;;;;;;;;;5092126;28;20085;-63
2022/07/20 08:38:40;;;;;;;27.00;18.33;;;;;;;;;;5091529;28;20457;-63
2022/07/20 08:41:08;;;;;;;27.75;18.60;;;;;;;;;;5092248;28;20028;-62
2022/07/20 08:43:34;;;;;;;29.95;18.17;;;;;;;;;;5102326;28;20464;-64
2022/07/20 08:45:59;;;;;;;23.70;17.38;;;;;;;;;;5112493;28;20028;-63
2022/07/20 08:48:26;;;;;;;25.45;18.23;;;;;;;;;;5111460;28;20370;-61
2022/07/20 08:50:53;;;;;;;23.05;17.80;;;;;;;;;;5112469;28;20035;-63
2022/07/20 08:53:20;;;;;;;26.90;18.35;;;;;;;;;;5112128;28;20468;-61
2022/07/20 08:55:46;;;;;;;26.15;17.42;;;;;;;;;;5112346;28;20488;-62
2022/07/20 08:58:12;;;;;;;26.90;17.38;;;;;;;;;;5098708;28;20123;-63
2022/07/20 09:00:38;;;;;;;23.17;17.50;;;;;;;;;;5091408;28;20154;-63
2022/07/20 09:03:05;;;;;;;25.77;18.10;;;;;;;;;;5091943;28;20028;-62
2022/07/20 09:05:36;;;;;;;24.77;17.40;;;;;;;;;;5090751;28;20149;-63
2022/07/20 09:08:03;;;;;;;26.05;18.23;;;;;;;;;;5091665;28;20028;-62
2022/07/20 09:10:36;;;;;;;25.58;17.42;;;;;;;;;;5091159;28;20024;-63
2022/07/20 09:13:08;;;;;;;29.20;17.15;;;;;;;;;;5096801;28;20039;-62
2022/07/20 09:15:39;;;;;;;23.00;17.92;;;;;;;;;;5112079;28;20032;-62
2022/07/20 09:18:09;;;;;;;27.88;18.17;;;;;;;;;;5115857;28;20027;-62
2022/07/20 09:20:36;;;;;;;31.45;17.63;;;;;;;;;;5115166;28;20023;-63
2022/07/20 09:23:04;;;;;;;26.15;17.48;;;;;;;;;;5115723;28;20039;-62
2022/07/20 09:25:30;;;;;;;22.70;17.70;;;;;;;;;;5115233;28;20052;-63
2022/07/20 09:27:56;;;;;;;25.10;16.67;;;;;;;;;;5114443;28;20114;-63
2022/07/20 09:30:22;;;;;;;25.73;17.40;;;;;;;;;;5115379;28;20081;-62
2022/07/20 09:33:08;;;;;;;24.83;17.27;;;;;;;;;;5115554;28;20039;-63
2022/07/20 09:35:35;;;;;;;24.60;17.58;;;;;;;;;;5114357;28;20047;-63
2022/07/20 09:38:06;;;;;;;29.63;17.55;;;;;;;;;;5115619;28;20106;-63
2022/07/20 09:40:43;;;;;;;22.85;16.48;;;;;;;;;;5114638;28;20023;-63
2022/07/20 09:43:28;;;;;;;23.83;16.58;;;;;;;;;;5113303;28;20409;-63
2022/07/20 09:45:54;;;;;;;23.17;15.75;;;;;;;;;;5115506;28;20103;-62
2022/07/20 09:48:23;;;;;;;24.85;16.23;;;;;;;;;;5115442;28;20115;-62
2022/07/20 09:50:49;;;;;;;20.85;15.38;;;;;;;;;;5114900;28;20525;-63
2022/07/20 09:53:14;;;;;;;20.75;15.48;;;;;;;;;;5114900;28;20035;-63
2022/07/20 09:55:41;;;;;;;23.20;16.05;;;;;;;;;;5114232;28;20127;-63
2022/07/20 09:58:07;;;;;;;19.30;15.32;;;;;;;;;;5113179;28;20383;-63
2022/07/20 10:00:34;;;;;;;20.23;14.70;;;;;;;;;;5114413;28;20058;-63
2022/07/20 10:03:01;;;;;;;19.88;14.10;;;;;;;;;;5115063;28;20032;-63
2022/07/20 10:05:31;;;;;;;21.00;14.18;;;;;;;;;;5113919;28;20032;-63
2022/07/20 10:08:01;;;;;;;27.02;12.68;;;;;;;;;;5115073;28;20115;-63
2022/07/20 10:10:26;;;;;;;22.48;13.40;;;;;;;;;;5114177;28;20031;-63
2022/07/20 10:12:52;;;;;;;19.17;14.10;;;;;;;;;;5094496;28;20028;-63
2022/07/20 10:15:21;;;;;;;20.20;13.55;;;;;;;;;;5109267;28;20039;-63
2022/07/20 10:17:47;;;;;;;20.30;14.10;;;;;;;;;;5113897;28;20035;-63
2022/07/20 10:20:30;;;;;;;19.58;13.75;;;;;;;;;;5109876;28;20433;-62
2022/07/20 10:23:14;;;;;;;20.48;13.48;;;;;;;;;;5113739;28;20032;-63
2022/07/20 10:25:40;;;;;;;20.20;13.68;;;;;;;;;;5113885;28;20388;-63
2022/07/20 10:28:23;;;;;;;18.25;12.63;;;;;;;;;;5114117;28;20367;-63
2022/07/20 10:30:56;;;;;;;19.67;13.82;;;;;;;;;;5113345;28;20078;-63
2022/07/20 10:33:23;;;;;;;21.58;13.55;;;;;;;;;;5114391;28;20028;-63
2022/07/20 10:35:49;;;;;;;17.63;13.27;;;;;;;;;;5093660;28;20031;-63
2022/07/20 10:38:19;;;;;;;25.58;13.45;;;;;;;;;;5114203;28;20376;-63
2022/07/20 10:44:25;;;;;;;22.23;13.32;;;;;;;;;;5113531;28;20039;-63
2022/07/20 10:46:50;;;;;;;23.30;13.48;;;;;;;;;;5113576;28;20031;-63
2022/07/20 10:49:16;;;;;;;17.73;13.20;;;;;;;;;;5111710;28;20507;-62
2022/07/20 10:51:42;;;;;;;15.27;12.20;;;;;;;;;;5109130;28;20076;-62
2022/07/20 10:54:33;;;;;;;16.20;12.00;;;;;;;;;;5114365;28;20349;-62
2022/07/20 10:57:01;;;;;;;15.75;12.30;;;;;;;;;;5114068;28;20064;-63
2022/07/20 10:59:26;;;;;;;18.75;12.93;;;;;;;;;;5113844;28;20073;-62
2022/07/20 11:01:53;;;;;;;19.55;11.95;;;;;;;;;;5113270;28;20039;-62
2022/07/20 11:04:21;;;;;;;15.15;10.77;;;;;;;;;;5114010;28;20099;-62
2022/07/20 11:06:47;;;;;;;16.80;11.70;;;;;;;;;;5093059;28;20088;-63
2022/07/20 11:09:12;;;;;;;17.92;11.88;;;;;;;;;;5111422;28;20047;-63
2022/07/20 11:11:38;;;;;;;19.70;11.95;;;;;;;;;;5113152;28;20031;-63
2022/07/20 11:14:05;;;;;;;17.92;11.95;;;;;;;;;;5113736;28;20046;-63
2022/07/20 11:16:33;;;;;;;15.40;11.45;;;;;;;;;;5112958;28;20031;-63
2022/07/20 11:19:00;;;;;;;15.65;11.63;;;;;;;;;;5113495;28;20043;-64
2022/07/20 11:21:46;;;;;;;16.55;11.60;;;;;;;;;;5113651;28;20028;-63
2022/07/20 11:24:23;;;;;;;21.35;11.40;;;;;;;;;;5104884;28;20034;-63
2022/07/20 11:26:49;;;;;;;15.10;11.07;;;;;;;;;;5112089;28;20043;-63
2022/07/20 11:29:15;;;;;;;15.13;10.85;;;;;;;;;;5113234;28;20054;-63
2022/07/20 11:31:41;;;;;;;19.75;10.68;;;;;;;;;;5094695;28;20032;-63
2022/07/20 11:34:06;;;;;;;14.43;10.80;;;;;;;;;;5112974;28;20077;-63
2022/07/20 11:36:36;;;;;;;15.60;11.00;;;;;;;;;;5109971;28;20042;-63
2022/07/20 11:39:05;;;;;;;12.52;10.88;;;;;;;;;;5111528;28;20032;-62
2022/07/20 11:41:30;;;;;;;19.80;11.32;;;;;;;;;;5112688;28;20467;-64
2022/07/20 11:43:57;;;;;;;21.05;11.73;;;;;;;;;;5113288;28;20038;-63
2022/07/20 11:46:34;;;;;;;15.52;10.93;;;;;;;;;;5113524;28;20027;-62
2022/07/20 11:49:02;;;;;;;17.33;10.52;;;;;;;;;;5113081;28;20034;-63
2022/07/20 11:51:30;;;;;;;15.25;10.45;;;;;;;;;;5113051;28;20031;-64
2022/07/20 11:53:56;;;;;;;13.70;10.55;;;;;;;;;;5095384;28;20055;-63
2022/07/20 11:56:27;;;;;;;16.08;10.70;;;;;;;;;;5074349;28;20091;-62
2022/07/20 11:58:56;;;;;;;14.95;10.32;;;;;;;;;;5091619;28;20492;-62
2022/07/20 12:01:33;;;;;;;12.75;10.30;;;;;;;;;;5092094;28;20381;-63
2022/07/20 12:04:05;;;;;;;16.10;10.18;;;;;;;;;;5092599;28;20105;-62
2022/07/20 12:06:33;;;;;;;17.10;10.18;;;;;;;;;;5091895;28;20031;-63
2022/07/20 12:09:10;;;;;;;14.85;9.60;;;;;;;;;;5112654;28;20057;-64
2022/07/20 12:11:51;;;;;;;16.70;9.80;;;;;;;;;;5111956;28;20384;-62
2022/07/20 12:14:26;;;;;;;14.45;9.38;;;;;;;;;;5112799;28;20028;-63
2022/07/20 12:16:53;;;;;;;15.98;9.25;;;;;;;;;;5112076;28;20361;-63
2022/07/20 12:19:19;;;;;;;17.02;9.32;;;;;;;;;;5112715;28;20062;-64
2022/07/20 12:21:44;;;;;;;14.10;9.38;;;;;;;;;;5105846;28;20487;-63
2022/07/20 12:24:11;;;;;;;13.77;9.02;;;;;;;;;;5092438;28;20427;-62
2022/07/20 12:26:37;;;;;;;16.35;9.15;;;;;;;;;;5091588;28;20485;-63
2022/07/20 12:29:26;;;;;;;17.38;9.23;;;;;;;;;;5092298;28;20127;-63
2022/07/20 12:32:01;;;;;;;11.73;8.45;;;;;;;;;;5091789;28;20039;-63
2022/07/20 12:34:27;;;;;;;9.52;8.05;;;;;;;;;;5092175;28;20032;-63
2022/07/20 12:36:53;;;;;;;15.63;8.77;;;;;;;;;;5103088;28;20102;-63
2022/07/20 12:39:42;;;;;;;12.23;8.60;;;;;;;;;;5112247;28;20165;-64
2022/07/20 12:42:15;;;;;;;12.03;8.80;;;;;;;;;;5112529;28;20020;-63
2022/07/20 12:44:42;;;;;;;13.68;8.48;;;;;;;;;;5111910;28;20471;-64
2022/07/20 12:47:09;;;;;;;14.18;8.70;;;;;;;;;;5112374;28;20072;-63
2022/07/20 12:49:35;;;;;;;13.27;8.82;;;;;;;;;;5112131;28;20036;-64
2022/07/20 12:52:01;;;;;;;11.77;8.95;;;;;;;;;;5114623;28;20030;-63
2022/07/20 12:54:26;;;;;;;14.63;8.90;;;;;;;;;;5114383;28;20498;-63
2022/07/20 12:56:53;;;;;;;17.40;8.88;;;;;;;;;;5115572;28;20063;-63
2022/07/20 12:59:19;;;;;;;13.20;8.57;;;;;;;;;;5116409;28;20055;-63
2022/07/20 13:01:48;;;;;;;12.95;8.43;;;;;;;;;;5115321;28;20532;-63
2022/07/20 13:04:17;;;;;;;14.05;8.75;;;;;;;;;;5116384;28;20024;-63
2022/07/20 13:06:44;;;;;;;13.73;8.48;;;;;;;;;;5115593;28;20465;-62
2022/07/20 13:09:09;;;;;;;12.93;7.85;;;;;;;;;;5114700;28;20035;-64
2022/07/20 13:11:38;;;;;;;13.88;8.57;;;;;;;;;;5115779;28;20107;-63
2022/07/20 13:14:03;;;;;;;14.20;8.40;;;;;;;;;;5116482;28;20422;-63
2022/07/20 13:16:29;;;;;;;12.10;8.25;;;;;;;;;;5116190;28;20463;-63
2022/07/20 13:18:54;;;;;;;11.82;8.20;;;;;;;;;;5115639;28;20081;-63
2022/07/20 13:21:21;;;;;;;12.30;8.27;;;;;;;;;;5115389;28;20027;-63
2022/07/20 13:23:46;;;;;;;12.68;8.38;;;;;;;;;;5113806;28;20024;-64
2022/07/20 13:26:11;;;;;;;14.27;8.55;;;;;;;;;;5115850;28;20080;-63
2022/07/20 13:28:37;;;;;;;12.55;8.10;;;;;;;;;;5096893;28;20053;-63
2022/07/20 13:31:02;;;;;;;10.73;8.35;;;;;;;;;;5115387;28;20036;-62
2022/07/20 13:33:28;;;;;;;11.15;8.30;;;;;;;;;;5115617;28;20104;-63
2022/07/20 13:35:54;;;;;;;16.95;8.43;;;;;;;;;;5112140;28;20451;-63
2022/07/20 13:38:19;;;;;;;15.63;8.40;;;;;;;;;;5115036;28;20124;-64
2022/07/20 13:40:45;;;;;;;16.65;8.07;;;;;;;;;;5114787;28;20102;-63
2022/07/20 13:43:10;;;;;;;14.98;8.48;;;;;;;;;;5115025;28;20489;-63
2022/07/20 13:45:35;;;;;;;14.75;8.23;;;;;;;;;;5115248;28;20356;-63
2022/07/20 13:48:03;;;;;;;14.10;7.70;;;;;;;;;;5114587;28;20429;-63
2022/07/20 13:50:29;;;;;;;14.57;8.45;;;;;;;;;;5106474;28;20077;-63
2022/07/20 13:52:55;;;;;;;12.38;7.78;;;;;;;;;;5076102;28;20032;-64
2022/07/20 13:55:20;;;;;;;13.75;7.80;;;;;;;;;;5076125;28;20465;-63
2022/07/20 13:57:46;;;;;;;11.55;7.82;;;;;;;;;;5093860;28;20028;-64
2022/07/20 14:00:12;;;;;;;10.90;7.38;;;;;;;;;;5094321;28;20038;-63
2022/07/20 14:02:39;;;;;;;19.33;7.68;;;;;;;;;;5093814;28;20060;-63
2022/07/20 14:05:05;;;;;;;10.52;7.40;;;;;;;;;;5101129;28;20036;-64
2022/07/20 14:07:31;;;;;;;10.38;6.95;;;;;;;;;;5115124;28;20114;-64
2022/07/20 14:09:56;;;;;;;13.60;7.60;;;;;;;;;;5113221;28;20028;-64
2022/07/20 14:12:22;;;;;;;12.02;7.20;;;;;;;;;;5115254;28;20062;-64
2022/07/20 14:14:47;;;;;;;11.77;7.15;;;;;;;;;;5113928;28;20045;-64
2022/07/20 14:17:13;;;;;;;12.40;7.45;;;;;;;;;;5114456;28;20031;-64
2022/07/20 14:19:39;;;;;;;12.50;7.10;;;;;;;;;;5112248;28;20046;-63
2022/07/20 14:22:05;;;;;;;10.85;6.80;;;;;;;;;;5114030;28;20024;-63
2022/07/20 14:24:30;;;;;;;11.57;7.35;;;;;;;;;;5114438;28;20035;-63
2022/07/20 14:26:56;;;;;;;9.77;6.65;;;;;;;;;;5113496;28;20563;-64
2022/07/20 14:29:21;;;;;;;10.23;6.82;;;;;;;;;;5114483;28;20027;-63
2022/07/20 14:31:47;;;;;;;12.30;6.70;;;;;;;;;;5113560;28;20357;-64
2022/07/20 14:34:12;;;;;;;9.95;6.70;;;;;;;;;;5112265;28;20031;-64